Time;durP1;ratioP1;P1;durP2;ratioP2;P2;SDS_P1;SDS_P2;PMS_P1;PMS_P2;Temp;Humidity;BMP_temperature;BMP_pressure;BME280_temperature;BME280_humidity;BME280_pressure;Samples;Min_cycle;Max_cycle;Signal;HPM_P1;HPM_P2
2023/04/06 00:00:23;;;;;;;7.50;1.98;;;;;;;6.84;100.00;100897.50;5033586;28;20530;-85
2023/04/06 00:02:49;;;;;;;4.53;2.25;;;;;;;6.78;100.00;100880.22;5017418;28;20403;-86
2023/04/06 00:05:20;;;;;;;5.95;2.15;;;;;;;6.93;100.00;100896.63;5032866;28;20376;-87
2023/04/06 00:07:45;;;;;;;5.22;2.20;;;;;;;6.88;100.00;100888.19;5001080;28;20507;-87
2023/04/06 00:10:11;;;;;;;7.70;1.67;;;;;;;6.90;100.00;100888.03;5032696;28;20029;-82
2023/04/06 00:12:37;;;;;;;5.65;2.38;;;;;;;6.86;100.00;100887.50;5033919;28;20126;-87
2023/04/06 00:15:05;;;;;;;5.97;1.88;;;;;;;6.87;100.00;100891.84;5032977;28;20488;-87
2023/04/06 00:17:31;;;;;;;7.65;2.03;;;;;;;6.73;100.00;100863.78;5031863;28;20485;-85
2023/04/06 00:19:56;;;;;;;5.88;2.20;;;;;;;6.86;100.00;100895.50;5034495;28;20156;-87
2023/04/06 00:22:22;;;;;;;3.85;1.83;;;;;;;6.82;100.00;100886.09;5033168;28;20029;-87
2023/04/06 00:24:52;;;;;;;6.00;1.90;;;;;;;6.81;100.00;100885.25;5032103;28;20025;-87
2023/04/06 00:27:18;;;;;;;5.95;1.70;;;;;;;6.80;100.00;100877.38;5016574;28;20388;-87
2023/04/06 00:29:44;;;;;;;5.45;1.67;;;;;;;6.76;100.00;100871.50;5033978;28;20033;-86
2023/04/06 00:32:13;;;;;;;7.63;2.10;;;;;;;6.66;100.00;100864.53;5016655;28;20494;-88
2023/04/06 00:34:39;;;;;;;6.57;1.88;;;;;;;6.65;100.00;100871.69;5032858;28;20456;-86
2023/04/06 00:37:05;;;;;;;6.47;2.17;;;;;;;6.69;100.00;100882.94;5031514;28;20033;-83
2023/04/06 00:39:30;;;;;;;6.68;2.00;;;;;;;6.64;100.00;100869.16;5032831;28;20033;-86
2023/04/06 00:41:57;;;;;;;4.03;1.70;;;;;;;6.65;100.00;100865.53;5032871;28;20069;-87
2023/04/06 00:44:22;;;;;;;7.82;2.00;;;;;;;6.74;100.00;100876.16;5031721;28;20025;-86
2023/04/06 00:46:48;;;;;;;10.27;2.08;;;;;;;6.79;100.00;100867.69;5032744;28;20029;-85
2023/04/06 00:49:14;;;;;;;8.77;2.20;;;;;;;6.79;100.00;100867.69;4999496;28;20033;-84
2023/04/06 00:51:40;;;;;;;3.63;1.60;;;;;;;6.79;100.00;100862.34;5016735;28;20537;-86
2023/04/06 00:54:06;;;;;;;4.90;1.67;;;;;;;6.77;100.00;100864.31;5032577;28;20531;-86
2023/04/06 00:56:31;;;;;;;5.97;1.75;;;;;;;6.68;100.00;100859.88;5033245;28;20076;-87
2023/04/06 00:58:57;;;;;;;4.43;1.80;;;;;;;6.59;100.00;100862.44;5032312;28;20021;-86
2023/04/06 01:01:26;;;;;;;5.55;1.92;;;;;;;6.55;100.00;100861.03;5033708;28;20026;-83
2023/04/06 01:03:52;;;;;;;4.85;1.70;;;;;;;6.46;100.00;100859.28;4999386;28;20476;-85
2023/04/06 01:06:18;;;;;;;4.00;2.65;;;;;;;6.44;100.00;100855.06;5016048;28;20357;-86
2023/04/06 01:08:43;;;;;;;4.90;1.90;;;;;;;6.41;100.00;100858.88;5032975;28;20037;-86
2023/04/06 01:11:09;;;;;;;4.05;2.03;;;;;;;6.36;100.00;100853.13;5016236;28;20036;-86
2023/04/06 01:13:36;;;;;;;5.78;1.70;;;;;;;6.25;100.00;100847.97;5033681;28;20057;-85
2023/04/06 01:16:02;;;;;;;4.55;2.13;;;;;;;6.20;100.00;100844.88;5032951;28;20526;-86
2023/04/06 01:18:28;;;;;;;4.95;2.33;;;;;;;6.10;100.00;100842.25;5016231;28;20456;-85
2023/04/06 01:20:54;;;;;;;6.70;2.20;;;;;;;6.04;100.00;100843.66;5015845;28;20447;-83
2023/04/06 01:23:20;;;;;;;7.35;2.33;;;;;;;5.93;100.00;100839.31;5032828;28;20045;-86
2023/04/06 01:25:45;;;;;;;6.53;2.17;;;;;;;5.78;100.00;100838.06;5032006;28;20041;-84
2023/04/06 01:28:14;;;;;;;4.00;1.92;;;;;;;5.75;100.00;100848.19;5033458;28;20072;-86
2023/04/06 01:30:40;;;;;;;3.15;1.45;;;;;;;5.69;100.00;100836.25;5032419;28;20357;-85
2023/04/06 01:33:06;;;;;;;4.05;1.90;;;;;;;5.57;100.00;100838.22;5032103;28;20364;-85
2023/04/06 01:35:32;;;;;;;5.00;1.70;;;;;;;5.41;100.00;100838.78;5015914;28;20391;-83
2023/04/06 01:38:00;;;;;;;2.90;1.88;;;;;;;5.23;100.00;100845.78;5030987;28;20025;-85
2023/04/06 01:40:26;;;;;;;6.35;2.22;;;;;;;5.18;100.00;100848.84;5033047;28;20042;-85
2023/04/06 01:42:52;;;;;;;4.25;1.20;;;;;;;5.31;100.00;100851.25;5031926;28;20033;-86
2023/04/06 01:45:20;;;;;;;4.40;2.00;;;;;;;5.47;100.00;100843.53;5015102;28;20060;-84
2023/04/06 01:47:46;;;;;;;8.93;2.05;;;;;;;5.58;100.00;100839.88;5033201;28;20538;-85
2023/04/06 01:50:12;;;;;;;5.10;1.50;;;;;;;5.67;100.00;100830.22;5032393;28;20022;-85
2023/04/06 01:52:41;;;;;;;4.43;1.67;;;;;;;5.78;100.00;100834.56;5031175;28;20430;-86
2023/04/06 01:55:07;;;;;;;5.43;1.67;;;;;;;5.80;100.00;100827.25;5015074;28;20456;-86
2023/04/06 01:57:33;;;;;;;8.73;2.20;;;;;;;5.85;100.00;100839.19;4999562;28;20052;-85
2023/04/06 01:59:59;;;;;;;6.45;1.90;;;;;;;5.90;100.00;100834.25;5032284;28;20384;-84
2023/04/06 02:02:27;;;;;;;3.08;1.33;;;;;;;6.05;100.00;100845.31;5015690;28;20464;-86
2023/04/06 02:04:55;;;;;;;5.03;2.00;;;;;;;6.25;100.00;100861.31;5031797;28;20384;-86
2023/04/06 02:07:21;;;;;;;3.92;1.63;;;;;;;6.31;100.00;100864.22;5031847;28;20030;-82
2023/04/06 02:09:47;;;;;;;3.80;1.60;;;;;;;6.36;100.00;100861.13;5016811;28;20499;-83
2023/04/06 02:12:13;;;;;;;4.50;1.67;;;;;;;6.31;100.00;100861.56;5033218;28;20375;-84
2023/04/06 02:14:39;;;;;;;6.13;1.60;;;;;;;6.23;100.00;100845.44;5031908;28;20029;-82
2023/04/06 02:17:05;;;;;;;2.00;1.00;;;;;;;6.15;100.00;100853.31;5032589;28;20059;-83
2023/04/06 02:19:31;;;;;;;1.83;0.98;;;;;;;6.09;100.00;100854.75;5031579;28;20088;-84
2023/04/06 02:21:57;;;;;;;3.95;1.00;;;;;;;6.01;100.00;100848.47;5030841;28;20392;-82
2023/04/06 02:24:22;;;;;;;2.08;0.90;;;;;;;5.94;100.00;100851.69;5032506;28;20025;-84
2023/04/06 02:26:48;;;;;;;2.35;0.90;;;;;;;5.89;100.00;100855.72;5031807;28;20033;-83
2023/04/06 02:29:14;;;;;;;2.95;1.27;;;;;;;5.89;100.00;100858.41;5032602;28;20104;-84
2023/04/06 02:31:40;;;;;;;4.05;1.10;;;;;;;5.87;100.00;100855.88;5032626;28;20033;-85
2023/04/06 02:34:07;;;;;;;5.85;1.00;;;;;;;5.86;100.00;100856.84;5032446;28;20060;-84
2023/04/06 02:36:32;;;;;;;2.47;1.25;;;;;;;5.83;100.00;100858.97;5031445;28;20370;-82
2023/04/06 02:38:58;;;;;;;1.80;0.75;;;;;;;5.78;100.00;100856.72;5032773;28;20044;-84
2023/04/06 02:41:24;;;;;;;2.08;0.88;;;;;;;5.73;100.00;100856.31;5036072;28;20073;-83
2023/04/06 02:43:50;;;;;;;2.20;0.95;;;;;;;5.71;100.00;100851.09;5035535;28;20033;-85
2023/04/06 02:46:15;;;;;;;7.22;1.00;;;;;;;5.72;100.00;100857.31;5018750;28;20530;-84
2023/04/06 02:48:41;;;;;;;2.30;1.20;;;;;;;5.70;100.00;100854.78;5018837;28;20103;-84
2023/04/06 02:51:07;;;;;;;2.22;1.42;;;;;;;5.73;100.00;100857.16;5034816;28;20034;-84
2023/04/06 02:53:40;;;;;;;3.20;1.20;;;;;;;5.76;100.00;100864.03;5034897;28;20029;-85
2023/04/06 02:56:06;;;;;;;1.98;0.75;;;;;;;5.67;100.00;100841.72;5002554;28;20037;-84
2023/04/06 02:58:32;;;;;;;3.92;1.25;;;;;;;5.83;100.00;100866.97;5034097;28;20377;-85
2023/04/06 03:00:58;;;;;;;1.70;0.88;;;;;;;5.86;100.00;100858.69;5035033;28;20026;-83
2023/04/06 03:03:26;;;;;;;3.13;1.10;;;;;;;5.75;100.00;100841.00;5034623;28;20132;-84
2023/04/06 03:05:54;;;;;;;2.28;0.95;;;;;;;5.84;100.00;100855.31;5017848;28;20399;-81
2023/04/06 03:08:20;;;;;;;1.40;0.88;;;;;;;5.84;100.00;100852.66;5018437;28;20128;-84
2023/04/06 03:10:45;;;;;;;1.02;0.93;;;;;;;5.85;100.00;100857.03;5018360;28;20452;-83
2023/04/06 03:13:16;;;;;;;5.15;1.20;;;;;;;5.87;100.00;100855.03;5018108;28;20056;-84
2023/04/06 03:15:42;;;;;;;5.57;1.02;;;;;;;5.88;100.00;100856.72;4998961;28;20442;-84
2023/04/06 03:18:08;;;;;;;2.53;1.13;;;;;;;5.90;100.00;100842.25;5035546;28;20479;-84
2023/04/06 03:20:33;;;;;;;2.05;1.30;;;;;;;5.96;100.00;100848.03;5035618;28;20036;-82
2023/04/06 03:23:00;;;;;;;1.75;1.25;;;;;;;5.95;100.00;100849.84;5017318;28;20132;-84
2023/04/06 03:25:25;;;;;;;3.10;1.88;;;;;;;5.96;100.00;100848.03;5033970;28;20377;-84
2023/04/06 03:27:51;;;;;;;8.57;2.00;;;;;;;5.93;100.00;100851.81;5018223;28;20036;-84
2023/04/06 03:30:17;;;;;;;2.20;1.60;;;;;;;5.92;100.00;100852.78;5035317;28;20036;-82
2023/04/06 03:32:46;;;;;;;2.55;1.25;;;;;;;5.87;100.00;100855.03;5017728;28;20093;-84
2023/04/06 03:35:11;;;;;;;6.32;1.70;;;;;;;5.81;100.00;100856.44;5034322;28;20117;-84
2023/04/06 03:37:42;;;;;;;4.70;1.20;;;;;;;5.74;100.00;100847.31;5034204;28;20030;-84
2023/04/06 03:40:10;;;;;;;6.97;1.70;;;;;;;5.62;100.00;100843.97;5001892;28;20026;-82
2023/04/06 03:42:36;;;;;;;3.53;1.33;;;;;;;5.53;100.00;100851.97;5018134;28;20099;-84
2023/04/06 03:45:02;;;;;;;2.17;1.40;;;;;;;5.35;100.00;100828.69;5034258;28;20480;-82
2023/04/06 03:47:30;;;;;;;2.55;1.20;;;;;;;5.34;100.00;100848.31;5035174;28;20064;-84
2023/04/06 03:50:02;;;;;;;2.53;1.50;;;;;;;5.23;100.00;100851.97;5017354;28;20100;-84
2023/04/06 03:52:28;;;;;;;3.53;1.27;;;;;;;5.12;100.00;100854.75;5001537;28;20060;-84
2023/04/06 03:54:54;;;;;;;3.65;1.30;;;;;;;4.97;100.00;100861.44;5000238;28;20046;-83
2023/04/06 03:57:20;;;;;;;4.35;1.38;;;;;;;4.81;100.00;100854.81;5033741;28;20468;-83
2023/04/06 03:59:45;;;;;;;3.30;1.35;;;;;;;4.78;100.00;100860.44;5033894;28;20029;-83
2023/04/06 04:02:11;;;;;;;2.47;1.30;;;;;;;4.83;100.00;100870.69;5034024;28;20041;-83
2023/04/06 04:04:37;;;;;;;3.88;1.48;;;;;;;4.98;100.00;100869.31;5033454;28;20472;-83
2023/04/06 04:07:03;;;;;;;3.88;1.33;;;;;;;5.18;100.00;100866.69;5033635;28;20423;-82
2023/04/06 04:09:29;;;;;;;3.70;1.63;;;;;;;5.33;100.00;100869.81;5034553;28;20100;-82
2023/04/06 04:11:55;;;;;;;2.45;1.40;;;;;;;5.48;100.00;100876.41;5033459;28;20060;-84
2023/04/06 04:14:21;;;;;;;3.47;1.50;;;;;;;5.57;100.00;100877.38;5033519;28;20438;-84
2023/04/06 04:16:46;;;;;;;3.92;1.67;;;;;;;5.70;100.00;100886.78;5032313;28;20033;-84
2023/04/06 04:19:13;;;;;;;3.13;1.33;;;;;;;5.73;100.00;100881.16;5034254;28;20033;-81
2023/04/06 04:21:57;;;;;;;1.67;1.42;;;;;;;5.83;100.00;100888.34;5033378;28;20119;-84
2023/04/06 04:24:22;;;;;;;4.28;1.50;;;;;;;5.89;100.00;100904.59;5000973;28;20038;-84
2023/04/06 04:26:48;;;;;;;1.60;1.13;;;;;;;5.97;100.00;100903.94;5033563;28;20438;-85
2023/04/06 04:29:15;;;;;;;0.40;0.40;;;;;;;6.02;100.00;100912.34;5000887;28;20038;-85
2023/04/06 04:31:41;;;;;;;0.65;0.65;;;;;;;6.03;100.00;100908.69;5033071;28;20396;-84
2023/04/06 04:34:09;;;;;;;0.30;0.30;;;;;;;6.04;100.00;100920.22;5032614;28;20096;-85
2023/04/06 04:36:35;;;;;;;0.40;0.40;;;;;;;6.00;100.00;100914.31;5016892;28;20124;-84
2023/04/06 04:39:01;;;;;;;0.32;0.32;;;;;;;6.03;100.00;100915.84;5032684;28;20521;-85
2023/04/06 04:41:27;;;;;;;0.40;0.40;;;;;;;6.00;100.00;100916.97;5033119;28;20384;-81
2023/04/06 04:43:54;;;;;;;0.30;0.30;;;;;;;5.99;100.00;100917.16;5032634;28;20030;-83
2023/04/06 04:46:23;;;;;;;0.30;0.30;;;;;;;5.97;100.00;100917.28;5032635;28;20423;-83
2023/04/06 04:48:49;;;;;;;0.40;0.40;;;;;;;5.99;100.00;100920.66;5033677;28;20399;-86
2023/04/06 04:51:15;;;;;;;0.40;0.40;;;;;;;5.99;100.00;100923.31;5015987;28;20029;-81
2023/04/06 04:53:41;;;;;;;0.40;0.40;;;;;;;6.03;100.00;100927.38;5000097;28;20033;-84
2023/04/06 04:56:06;;;;;;;0.30;0.30;;;;;;;6.00;100.00;100922.31;5015824;28;20380;-81
2023/04/06 04:58:32;;;;;;;0.30;0.30;;;;;;;6.02;100.00;100931.03;5032086;28;20443;-83
2023/04/06 05:01:01;;;;;;;0.35;0.35;;;;;;;6.04;100.00;100931.75;5033473;28;20422;-84
2023/04/06 05:03:26;;;;;;;0.32;0.32;;;;;;;6.07;100.00;100933.28;5032188;28;20395;-84
2023/04/06 05:05:52;;;;;;;0.30;0.30;;;;;;;6.07;100.00;100936.78;5015821;28;20064;-85
2023/04/06 05:08:18;;;;;;;0.40;0.40;;;;;;;6.09;100.00;100939.34;5032519;28;20083;-84
2023/04/06 05:10:44;;;;;;;0.40;0.40;;;;;;;6.07;100.00;100947.47;5032342;28;20032;-83
2023/04/06 05:13:11;;;;;;;0.40;0.40;;;;;;;6.08;100.00;100945.63;5016715;28;20033;-83
2023/04/06 05:15:40;;;;;;;0.30;0.30;;;;;;;6.07;100.00;100949.31;5032398;28;20377;-84
2023/04/06 05:18:09;;;;;;;0.30;0.30;;;;;;;6.04;100.00;100958.44;5032854;28;20057;-84
2023/04/06 05:20:35;;;;;;;0.40;0.40;;;;;;;6.05;100.00;100951.28;5032399;28;20388;-84
2023/04/06 05:23:01;;;;;;;0.40;0.40;;;;;;;6.04;100.00;100958.44;5016224;28;20429;-83
2023/04/06 05:25:27;;;;;;;0.40;0.40;;;;;;;6.00;100.00;100945.50;4983761;28;20036;-84
2023/04/06 05:27:53;;;;;;;0.30;0.30;;;;;;;5.97;100.00;100951.97;5032221;28;20369;-84
2023/04/06 05:30:20;;;;;;;0.40;0.40;;;;;;;5.92;100.00;100948.84;4999791;28;20648;-81
2023/04/06 05:32:46;;;;;;;0.40;0.40;;;;;;;5.98;100.00;100963.47;5016290;28;20092;-82
2023/04/06 05:35:12;;;;;;;0.40;0.40;;;;;;;5.95;100.00;100964.59;5032472;28;20530;-85
2023/04/06 05:37:38;;;;;;;0.40;0.40;;;;;;;5.96;100.00;100966.31;5015792;28;20045;-84
2023/04/06 05:40:05;;;;;;;0.40;0.40;;;;;;;5.94;100.00;100970.94;5015912;28;20052;-82
2023/04/06 05:42:42;;;;;;;0.40;0.40;;;;;;;5.91;100.00;100964.03;5015353;28;20081;-83
2023/04/06 05:45:10;;;;;;;0.40;0.40;;;;;;;5.93;100.00;100971.91;5031930;28;20026;-83
2023/04/06 05:47:36;;;;;;;0.40;0.40;;;;;;;5.93;100.00;100958.56;5015410;28;20029;-84
2023/04/06 05:50:02;;;;;;;0.40;0.40;;;;;;;5.87;100.00;100961.78;5015985;28;20056;-85
2023/04/06 05:52:28;;;;;;;0.40;0.40;;;;;;;5.84;100.00;100962.88;5032025;28;20375;-80
2023/04/06 05:54:54;;;;;;;0.40;0.40;;;;;;;5.88;100.00;100966.97;5031929;28;20035;-84
2023/04/06 05:57:20;;;;;;;0.40;0.40;;;;;;;5.87;100.00;100967.09;5015597;28;20038;-84
2023/04/06 05:59:45;;;;;;;0.30;0.30;;;;;;;5.85;100.00;100969.09;5031975;28;20060;-84
2023/04/06 06:02:11;;;;;;;0.40;0.40;;;;;;;5.87;100.00;100978.63;4999122;28;20045;-84
2023/04/06 06:04:37;;;;;;;0.40;0.40;;;;;;;5.81;100.00;100976.53;5031909;28;20472;-83
2023/04/06 06:07:03;;;;;;;0.40;0.40;;;;;;;5.80;100.00;100977.50;5032800;28;20468;-82
2023/04/06 06:09:29;;;;;;;0.40;0.40;;;;;;;5.69;100.00;100973.16;5031448;28;20025;-84
2023/04/06 06:11:55;;;;;;;0.40;0.40;;;;;;;5.66;100.00;100984.09;5015031;28;20554;-84
2023/04/06 06:14:21;;;;;;;0.40;0.40;;;;;;;5.64;100.00;100986.06;5033337;28;20095;-84
2023/04/06 06:16:47;;;;;;;0.40;0.40;;;;;;;5.59;100.00;100985.63;5035696;28;20399;-84
2023/04/06 06:19:13;;;;;;;0.40;0.40;;;;;;;5.59;100.00;100998.97;5036782;28;20025;-83
2023/04/06 06:21:39;;;;;;;0.40;0.40;;;;;;;5.57;100.00;101008.94;5018938;28;20037;-81
2023/04/06 06:24:05;;;;;;;0.40;0.40;;;;;;;5.51;100.00;101001.47;5019135;28;20030;-83
2023/04/06 06:26:31;;;;;;;0.40;0.40;;;;;;;5.53;100.00;101004.00;5019229;28;20033;-84
2023/04/06 06:28:56;;;;;;;0.40;0.40;;;;;;;5.42;100.00;101005.78;5018667;28;20072;-84
2023/04/06 06:31:22;;;;;;;0.40;0.40;;;;;;;5.35;100.00;101017.16;5018651;28;20416;-83
2023/04/06 06:33:50;;;;;;;0.40;0.40;;;;;;;5.18;100.00;101015.97;5036873;28;20030;-83
2023/04/06 06:36:17;;;;;;;0.40;0.40;;;;;;;5.08;100.00;101018.63;5019360;28;20033;-83
2023/04/06 06:38:43;;;;;;;0.40;0.40;;;;;;;4.93;100.00;101007.44;5018396;28;20044;-84
2023/04/06 06:41:09;;;;;;;0.40;0.40;;;;;;;4.74;100.00;101012.69;5002118;28;20025;-83
2023/04/06 06:43:38;;;;;;;0.40;0.40;;;;;;;4.52;100.00;101009.16;5036008;28;20037;-84
2023/04/06 06:46:04;;;;;;;0.40;0.40;;;;;;;4.42;100.00;101016.28;5002077;28;20042;-84
2023/04/06 06:48:30;;;;;;;0.40;0.40;;;;;;;4.38;100.00;101020.16;5035263;28;20037;-84
2023/04/06 06:50:56;;;;;;;0.32;0.32;;;;;;;4.34;100.00;101018.72;4986401;28;20116;-83
2023/04/06 06:53:23;;;;;;;0.50;0.50;;;;;;;4.57;100.00;101019.44;5018728;28;20488;-84
2023/04/06 06:55:51;;;;;;;0.40;0.40;;;;;;;4.95;100.00;101028.63;5034622;28;20091;-83
2023/04/06 06:58:20;;;;;;;0.40;0.40;;;;;;;4.98;100.00;101020.38;5034188;28;20022;-81
2023/04/06 07:00:46;;;;;;;0.50;0.50;;;;;;;5.11;100.00;101020.13;5034236;28;20029;-83
2023/04/06 07:03:12;;;;;;;0.40;0.40;;;;;;;5.69;100.00;101023.84;5034065;28;20064;-83
2023/04/06 07:05:38;;;;;;;0.40;0.40;;;;;;;6.16;100.00;101037.38;5034704;28;20057;-84
2023/04/06 07:08:04;;;;;;;0.40;0.40;;;;;;;6.29;100.00;101036.28;5035619;28;20040;-83
2023/04/06 07:10:32;;;;;;;0.40;0.40;;;;;;;6.33;100.00;101035.84;5035485;28;20029;-81
2023/04/06 07:12:58;;;;;;;0.40;0.40;;;;;;;6.55;100.00;101036.53;5035622;28;20469;-81
2023/04/06 07:15:24;;;;;;;0.40;0.40;;;;;;;6.96;100.00;101035.31;5001822;28;20136;-81
2023/04/06 07:17:49;;;;;;;0.50;0.50;;;;;;;7.59;100.00;101044.47;5034048;28;20025;-85
2023/04/06 07:20:15;;;;;;;0.40;0.40;;;;;;;7.89;100.00;101036.13;5035765;28;20033;-84
2023/04/06 07:22:48;;;;;;;0.50;0.50;;;;;;;8.24;100.00;101039.81;5035411;28;20768;-83
2023/04/06 07:25:13;;;;;;;0.50;0.50;;;;;;;8.63;100.00;101044.84;5018325;28;20037;-85
2023/04/06 07:27:39;;;;;;;0.50;0.50;;;;;;;9.57;100.00;101045.88;5034398;28;20025;-84
2023/04/06 07:30:06;;;;;;;0.60;0.60;;;;;;;11.07;100.00;101052.91;5034882;28;20033;-85
2023/04/06 07:32:34;;;;;;;0.50;0.50;;;;;;;12.34;100.00;101059.03;5001701;28;20037;-84
2023/04/06 07:34:59;;;;;;;0.52;0.52;;;;;;;13.30;100.00;101065.59;5035414;28;20464;-84
2023/04/06 07:37:25;;;;;;;0.50;0.50;;;;;;;13.78;98.63;101066.00;5035380;28;20040;-81
2023/04/06 07:39:51;;;;;;;0.55;0.55;;;;;;;13.96;94.65;101069.13;5033723;28;20079;-85
2023/04/06 07:42:16;;;;;;;0.50;0.50;;;;;;;14.07;94.97;101079.44;5035304;28;20034;-84
2023/04/06 07:44:42;;;;;;;0.50;0.50;;;;;;;14.47;93.13;101084.44;5035422;28;20380;-85
2023/04/06 07:47:11;;;;;;;0.60;0.60;;;;;;;14.78;91.05;101089.53;5017687;28;20029;-85
2023/04/06 07:49:36;;;;;;;0.50;0.50;;;;;;;15.12;89.94;101093.34;5017553;28;20048;-82
2023/04/06 07:52:03;;;;;;;0.50;0.50;;;;;;;15.45;90.18;101092.72;5001056;28;20026;-81
2023/04/06 07:54:28;;;;;;;0.50;0.50;;;;;;;15.99;88.10;101102.81;5034000;28;20538;-85
2023/04/06 07:56:54;;;;;;;0.50;0.50;;;;;;;16.47;87.89;101103.56;5033755;28;20026;-84
2023/04/06 07:59:20;;;;;;;0.70;0.70;;;;;;;16.79;84.15;101090.25;5033869;28;20075;-82
2023/04/06 08:01:45;;;;;;;0.50;0.50;;;;;;;17.01;84.20;101098.19;5033654;28;20037;-85
2023/04/06 08:04:11;;;;;;;0.50;0.50;;;;;;;17.09;82.44;101095.25;5033822;28;20030;-85
2023/04/06 08:06:37;;;;;;;0.68;0.68;;;;;;;17.04;80.52;101093.19;5017072;28;20033;-86
2023/04/06 08:09:03;;;;;;;0.50;0.50;;;;;;;16.97;81.58;101102.38;5033543;28;20491;-85
2023/04/06 08:11:29;;;;;;;0.60;0.60;;;;;;;16.63;82.40;101071.63;5034516;28;20057;-87
2023/04/06 08:13:56;;;;;;;0.60;0.60;;;;;;;16.97;84.11;101100.50;5033359;28;20538;-83
2023/04/06 08:16:23;;;;;;;0.60;0.60;;;;;;;17.43;84.14;101107.75;5032932;28;20384;-84
2023/04/06 08:18:48;;;;;;;0.50;0.50;;;;;;;17.47;79.12;101109.00;4999984;28;20112;-86
2023/04/06 08:21:28;;;;;;;0.70;0.70;;;;;;;17.57;82.08;101111.25;5032086;28;20125;-87
2023/04/06 08:23:54;;;;;;;0.60;0.60;;;;;;;17.91;79.92;101109.28;5034258;28;20468;-79
2023/04/06 08:26:19;;;;;;;0.63;0.63;;;;;;;18.35;83.11;101118.50;5034577;28;20028;-79
2023/04/06 08:28:45;;;;;;;0.60;0.60;;;;;;;18.66;80.04;101112.22;5033094;28;20029;-79
2023/04/06 08:31:10;;;;;;;0.77;0.75;;;;;;;18.96;77.21;101115.16;5033801;28;20029;-79
2023/04/06 08:33:38;;;;;;;2.95;1.13;;;;;;;18.84;75.16;101115.06;5033379;28;20432;-79
2023/04/06 08:36:12;;;;;;;1.98;1.30;;;;;;;18.83;77.15;101124.25;5016981;28;20084;-79
2023/04/06 08:38:38;;;;;;;0.90;0.90;;;;;;;18.91;79.24;101130.50;5016820;28;20038;-79
2023/04/06 08:41:21;;;;;;;0.95;0.88;;;;;;;19.23;76.85;101121.19;5033361;28;20041;-79
2023/04/06 08:43:50;;;;;;;0.70;0.70;;;;;;;19.22;72.46;101122.25;5033256;28;20407;-79
2023/04/06 08:46:15;;;;;;;1.00;0.70;;;;;;;19.32;75.97;101138.13;5016718;28;20551;-79
2023/04/06 08:48:42;;;;;;;3.03;0.95;;;;;;;19.36;74.02;101138.50;5000472;28;20117;-79
2023/04/06 08:51:11;;;;;;;1.67;1.00;;;;;;;19.63;75.91;101122.69;5033221;28;20048;-78
2023/04/06 08:53:38;;;;;;;5.38;1.30;;;;;;;20.27;74.34;101134.94;5034176;28;20033;-79
2023/04/06 08:56:05;;;;;;;2.25;1.25;;;;;;;20.39;72.28;101129.53;5032885;28;20052;-78
2023/04/06 08:58:35;;;;;;;3.42;1.02;;;;;;;18.43;80.04;101129.13;5016617;28;20029;-78
2023/04/06 09:01:01;;;;;;;2.80;1.00;;;;;;;19.99;78.54;101132.78;5016759;28;20041;-78
2023/04/06 09:03:28;;;;;;;4.50;1.42;;;;;;;21.61;75.07;101130.91;5032909;28;20526;-78
2023/04/06 09:05:54;;;;;;;1.60;1.00;;;;;;;22.48;67.17;101141.75;4999992;28;20048;-78
2023/04/06 09:08:19;;;;;;;4.03;1.60;;;;;;;23.12;63.42;101144.22;5016317;28;20416;-78
2023/04/06 09:10:45;;;;;;;2.38;1.10;;;;;;;21.40;65.85;101133.19;5032615;28;20025;-79
2023/04/06 09:13:11;;;;;;;2.83;1.15;;;;;;;18.11;75.96;101130.97;5016340;28;20519;-78
2023/04/06 09:15:37;;;;;;;3.28;1.10;;;;;;;19.32;78.94;101149.84;5016290;28;20033;-79
2023/04/06 09:18:03;;;;;;;3.97;1.10;;;;;;;16.88;84.38;101156.06;4999929;28;20045;-78
2023/04/06 09:20:28;;;;;;;1.80;1.27;;;;;;;18.21;83.56;101143.06;5032652;28;20076;-78
2023/04/06 09:22:55;;;;;;;2.70;1.17;;;;;;;18.71;75.22;101142.38;5016296;28;20460;-78
2023/04/06 09:25:22;;;;;;;4.28;1.48;;;;;;;18.69;76.81;101149.91;5032364;28;20083;-79
2023/04/06 09:27:58;;;;;;;1.33;0.90;;;;;;;16.71;83.47;101164.56;5032360;28;20037;-78
2023/04/06 09:30:24;;;;;;;3.72;1.83;;;;;;;19.42;80.39;101160.22;5032679;28;20123;-78
2023/04/06 09:32:54;;;;;;;2.33;1.00;;;;;;;18.65;82.87;101168.56;5033710;28;20100;-78
2023/04/06 09:35:20;;;;;;;5.15;1.15;;;;;;;16.39;83.86;101173.50;4999975;28;20170;-78
2023/04/06 09:37:47;;;;;;;2.75;1.00;;;;;;;14.64;92.25;101177.06;4999670;28;20464;-77
2023/04/06 09:40:13;;;;;;;3.17;1.05;;;;;;;13.46;99.27;101189.66;4999862;28;20037;-78
2023/04/06 09:42:44;;;;;;;2.50;1.25;;;;;;;14.37;99.60;101174.03;5031901;28;20029;-76
2023/04/06 09:45:10;;;;;;;2.45;1.50;;;;;;;17.95;81.94;101187.56;4998922;28;20088;-77
2023/04/06 09:47:36;;;;;;;3.50;1.27;;;;;;;20.44;74.57;101187.00;5033047;28;20037;-76
2023/04/06 09:50:03;;;;;;;4.22;1.60;;;;;;;22.38;73.17;101188.94;5035857;28;20037;-80
2023/04/06 09:52:35;;;;;;;3.65;0.93;;;;;;;19.29;71.23;101191.19;5016655;28;20060;-76
2023/04/06 09:55:03;;;;;;;5.33;1.00;;;;;;;16.41;80.90;101191.25;5019228;28;20032;-77
2023/04/06 09:57:33;;;;;;;3.72;0.82;;;;;;;14.77;91.83;101198.88;5036139;28;20067;-77
2023/04/06 10:00:11;;;;;;;5.20;1.05;;;;;;;16.88;84.15;101194.94;5036159;28;20029;-78
2023/04/06 10:02:59;;;;;;;4.35;1.42;;;;;;;17.59;80.68;101204.31;5004291;28;20060;-77
2023/04/06 10:05:45;;;;;;;1.75;1.20;;;;;;;19.94;68.34;101209.06;5036591;28;20021;-78
2023/04/06 10:08:13;;;;;;;3.45;1.20;;;;;;;21.80;69.29;101209.06;5035895;28;20043;-77
2023/04/06 10:10:39;;;;;;;4.72;1.25;;;;;;;23.03;64.10;101197.84;4986964;28;20033;-82
2023/04/06 10:13:05;;;;;;;5.65;1.98;;;;;;;23.56;55.38;101206.66;5001385;28;20371;-79
2023/04/06 10:15:33;;;;;;;4.00;0.98;;;;;;;22.04;54.81;101217.25;5035022;28;20499;-78
2023/04/06 10:18:00;;;;;;;3.13;0.70;;;;;;;19.13;60.61;101202.63;5018944;28;20055;-76
2023/04/06 10:20:28;;;;;;;2.58;1.13;;;;;;;18.17;62.58;101217.19;5019329;28;20030;-77
2023/04/06 10:22:59;;;;;;;2.70;0.80;;;;;;;17.21;57.49;101215.03;5036544;28;20076;-76
2023/04/06 10:25:29;;;;;;;1.45;0.93;;;;;;;16.11;65.22;101211.56;5002905;28;20092;-78
2023/04/06 10:28:01;;;;;;;3.15;1.30;;;;;;;20.24;55.92;101211.00;5035655;28;20029;-76
2023/04/06 10:30:28;;;;;;;3.30;0.85;;;;;;;21.71;49.03;101202.28;5035725;28;20029;-77
2023/04/06 10:32:53;;;;;;;4.10;1.00;;;;;;;23.20;41.75;101215.13;5002911;28;20125;-77
2023/04/06 10:35:19;;;;;;;3.97;1.00;;;;;;;23.33;38.75;101215.91;5035696;28;20116;-78
2023/04/06 10:38:01;;;;;;;2.75;1.30;;;;;;;21.49;40.44;101230.25;5035572;28;20037;-77
2023/04/06 10:40:28;;;;;;;3.78;1.38;;;;;;;22.61;36.82;101220.09;5019477;28;20471;-79
2023/04/06 10:42:55;;;;;;;1.65;1.35;;;;;;;23.37;34.14;101220.66;5035395;28;20034;-77
2023/04/06 10:45:25;;;;;;;4.38;1.27;;;;;;;23.63;32.68;101216.38;5035064;28;20030;-76
2023/04/06 10:47:54;;;;;;;2.85;1.00;;;;;;;24.05;31.79;101226.03;5018961;28;20065;-77
2023/04/06 10:50:21;;;;;;;2.13;1.00;;;;;;;24.60;30.07;101225.09;5035014;28;20112;-76
2023/04/06 10:53:07;;;;;;;3.53;1.10;;;;;;;25.16;31.36;101228.41;5035018;28;20033;-77
2023/04/06 10:55:33;;;;;;;2.45;0.90;;;;;;;26.04;28.16;101232.66;5034904;28;20049;-76
2023/04/06 10:57:58;;;;;;;1.67;1.05;;;;;;;25.03;26.82;101201.31;5036367;28;20080;-77
2023/04/06 11:00:24;;;;;;;2.70;1.20;;;;;;;24.40;30.61;101236.66;5001774;28;20034;-77
2023/04/06 11:02:50;;;;;;;2.50;1.10;;;;;;;24.98;28.46;101232.38;5036294;28;20113;-77
2023/04/06 11:05:15;;;;;;;3.85;1.25;;;;;;;25.33;30.03;101233.81;5034930;28;20033;-78
2023/04/06 11:07:41;;;;;;;0.93;0.70;;;;;;;23.05;29.34;101231.34;5018297;28;20029;-77
2023/04/06 11:10:08;;;;;;;4.80;0.90;;;;;;;19.86;35.03;101236.66;5018211;28;20447;-78
2023/04/06 11:12:34;;;;;;;2.28;0.90;;;;;;;17.73;39.21;101227.75;5018393;28;20427;-77
2023/04/06 11:15:48;;;;;;;1.60;0.70;;;;;;;16.78;41.50;101209.97;5034893;28;20029;-77
2023/04/06 11:18:17;;;;;;;2.42;0.68;;;;;;;15.65;44.81;101240.03;5015181;28;20087;-77
2023/04/06 11:20:47;;;;;;;3.65;1.25;;;;;;;15.82;45.46;101243.31;5018311;28;20026;-77
2023/04/06 11:23:22;;;;;;;3.17;1.20;;;;;;;20.36;38.21;101234.59;4986076;28;20052;-78